Time;durP1;ratioP1;P1;durP2;ratioP2;P2;SDS_P1;SDS_P2;PMS_P1;PMS_P2;Temp;Humidity;BMP_temperature;BMP_pressure;BME280_temperature;BME280_humidity;BME280_pressure;Samples;Min_cycle;Max_cycle;Signal;HPM_P1;HPM_P2
2021/12/07 00:01:04;;;;;;;1.77;1.20;;;;;;;0.49;100.00;95925.88;4982935;28;20225;-82
2021/12/07 00:03:32;;;;;;;1.87;1.13;;;;;;;0.53;100.00;95932.47;4984214;28;20204;-82
2021/12/07 00:05:59;;;;;;;2.17;1.33;;;;;;;0.47;100.00;95926.06;4996649;28;20315;-82
2021/12/07 00:08:28;;;;;;;1.47;1.10;;;;;;;0.50;100.00;95927.53;4985419;28;20216;-82
2021/12/07 00:10:55;;;;;;;3.53;1.50;;;;;;;0.51;100.00;95914.06;4979054;28;20240;-83
2021/12/07 00:13:24;;;;;;;1.77;1.27;;;;;;;0.50;100.00;95906.28;4984812;28;20232;-82
2021/12/07 00:15:51;;;;;;;2.13;1.20;;;;;;;0.44;100.00;95901.66;4977585;28;20213;-82
2021/12/07 00:18:19;;;;;;;1.57;1.27;;;;;;;0.37;100.00;95891.75;5001432;28;20214;-82
2021/12/07 00:20:46;;;;;;;2.00;1.10;;;;;;;0.38;100.00;95882.81;4979527;28;20217;-82
2021/12/07 00:23:15;;;;;;;1.13;1.03;;;;;;;0.45;100.00;95864.31;4981512;28;20196;-83
2021/12/07 00:25:42;;;;;;;1.30;1.00;;;;;;;0.48;100.00;95857.81;4980842;28;20210;-83
2021/12/07 00:28:10;;;;;;;1.53;1.20;;;;;;;0.54;100.00;95865.06;4971782;28;20244;-83
2021/12/07 00:30:37;;;;;;;0.80;0.80;;;;;;;0.55;100.00;95864.06;4986372;28;20226;-82
2021/12/07 00:33:12;;;;;;;0.90;0.90;;;;;;;0.52;100.00;95840.50;4981280;28;20213;-81
2021/12/07 00:35:41;;;;;;;0.87;0.87;;;;;;;0.45;100.00;95848.38;4975904;28;20297;-82
2021/12/07 00:38:11;;;;;;;1.20;0.97;;;;;;;0.48;100.00;95849.84;4979870;28;20211;-82
2021/12/07 00:40:41;;;;;;;1.17;1.00;;;;;;;0.49;100.00;95854.16;4984509;28;20208;-82
2021/12/07 00:43:09;;;;;;;0.90;0.90;;;;;;;0.48;100.00;95857.81;4985724;28;20208;-82
2021/12/07 00:45:39;;;;;;;1.17;0.77;;;;;;;0.60;100.00;95874.97;4978690;28;20228;-83
2021/12/07 00:48:08;;;;;;;0.70;0.70;;;;;;;0.62;100.00;95879.09;4993483;28;20256;-83
2021/12/07 00:50:37;;;;;;;1.67;0.80;;;;;;;0.64;100.00;95887.72;4972121;28;20235;-82
2021/12/07 00:53:07;;;;;;;0.90;0.90;;;;;;;0.70;100.00;95892.31;4979023;28;20251;-82
2021/12/07 00:55:37;;;;;;;1.50;0.80;;;;;;;0.69;100.00;95900.44;4989560;28;20210;-83
2021/12/07 00:58:12;;;;;;;1.10;1.00;;;;;;;0.61;100.00;95895.22;4983253;28;20240;-83
2021/12/07 01:00:43;;;;;;;0.73;0.73;;;;;;;0.68;100.00;95910.25;4985095;28;20204;-82
2021/12/07 01:03:11;;;;;;;0.80;0.80;;;;;;;0.68;100.00;95912.91;4998038;28;20212;-82
2021/12/07 01:05:40;;;;;;;1.17;0.80;;;;;;;0.68;100.00;95920.09;4980203;28;20206;-82
2021/12/07 01:08:26;;;;;;;1.03;0.77;;;;;;;0.68;100.00;95931.50;4986089;28;20235;-82
2021/12/07 01:24:42;;;;;;;1.17;0.80;;;;;;;0.72;100.00;95964.69;4989489;28;20293;-82
2021/12/07 01:27:12;;;;;;;0.83;0.67;;;;;;;0.72;100.00;95962.03;4979581;28;20212;-83
2021/12/07 01:29:42;;;;;;;0.80;0.80;;;;;;;0.71;100.00;95971.03;4985014;28;20286;-83
2021/12/07 01:32:20;;;;;;;1.33;0.83;;;;;;;0.69;100.00;95981.00;4981335;28;20227;-83
2021/12/07 01:37:51;;;;;;;0.93;0.90;;;;;;;0.70;100.00;96001.25;4991285;28;20230;-82
2021/12/07 01:40:37;;;;;;;0.87;0.80;;;;;;;0.75;100.00;95995.41;4986523;28;20205;-82
2021/12/07 01:51:47;;;;;;;0.80;0.80;;;;;;;0.60;100.00;95998.00;4981149;28;20235;-82
2021/12/07 01:59:53;;;;;;;1.80;0.80;;;;;;;0.30;100.00;95998.88;4958903;28;20378;-81
2021/12/07 02:02:23;;;;;;;0.80;0.70;;;;;;;0.20;100.00;96003.56;4983742;28;20200;-82
2021/12/07 02:04:50;;;;;;;1.10;0.90;;;;;;;0.07;100.00;95998.03;4990329;28;20213;-82
2021/12/07 02:07:21;;;;;;;0.80;0.80;;;;;;;-0.02;100.00;96008.69;4982117;28;20224;-82
2021/12/07 02:09:56;;;;;;;1.40;1.10;;;;;;;-0.05;100.00;96014.31;4988033;28;20204;-82
2021/12/07 02:12:26;;;;;;;2.10;0.90;;;;;;;-0.08;100.00;96001.38;4988377;28;20212;-82
2021/12/07 02:14:53;;;;;;;0.97;0.90;;;;;;;-0.09;100.00;96004.25;5000117;28;20209;-82
2021/12/07 02:17:24;;;;;;;1.23;0.93;;;;;;;-0.12;100.00;96012.53;4985933;28;20215;-82
2021/12/07 02:19:54;;;;;;;1.30;1.03;;;;;;;-0.18;100.00;96014.06;4987354;28;20263;-83
2021/12/07 02:22:22;;;;;;;1.37;0.90;;;;;;;-0.24;100.00;96009.41;5000080;28;20233;-83
2021/12/07 02:24:52;;;;;;;0.90;0.83;;;;;;;-0.23;100.00;96024.34;4989025;28;20213;-82
2021/12/07 02:27:19;;;;;;;1.07;0.97;;;;;;;-0.26;100.00;96010.63;4984058;28;20232;-83
2021/12/07 02:29:46;;;;;;;0.90;0.90;;;;;;;-0.26;100.00;96008.78;4985189;28;20212;-82
2021/12/07 02:32:14;;;;;;;0.80;0.80;;;;;;;-0.28;100.00;96007.28;4987689;28;20209;-83
2021/12/07 02:34:52;;;;;;;1.33;1.00;;;;;;;-0.31;100.00;96013.75;4991139;28;20208;-82
2021/12/07 02:37:22;;;;;;;0.93;0.90;;;;;;;-0.37;100.00;95995.88;4985523;28;20402;-82
2021/12/07 02:39:51;;;;;;;2.20;0.90;;;;;;;-0.34;100.00;95992.88;5001537;28;20208;-82
2021/12/07 02:42:19;;;;;;;1.20;1.00;;;;;;;-0.30;100.00;95999.50;4985850;28;20201;-83
2021/12/07 02:44:47;;;;;;;1.97;1.20;;;;;;;-0.27;100.00;96001.81;4982417;28;20307;-83
2021/12/07 02:47:15;;;;;;;1.47;0.90;;;;;;;-0.38;100.00;95994.22;4995191;28;20197;-83
2021/12/07 02:49:43;;;;;;;1.10;1.00;;;;;;;-0.33;100.00;96002.50;4995066;28;20280;-82
2021/12/07 02:52:10;;;;;;;2.10;1.30;;;;;;;-0.31;100.00;96003.16;4985174;28;20259;-83
2021/12/07 02:54:44;;;;;;;2.23;1.50;;;;;;;-0.29;100.00;96010.94;4983321;28;20239;-83
2021/12/07 02:57:18;;;;;;;2.87;1.67;;;;;;;-0.27;100.00;96023.03;4983434;28;20241;-83
2021/12/07 02:59:52;;;;;;;3.47;2.27;;;;;;;-0.28;100.00;96026.69;4986005;28;20204;-82
2021/12/07 03:02:21;;;;;;;2.93;2.10;;;;;;;-0.24;100.00;96043.91;4987299;28;20200;-83
2021/12/07 03:04:58;;;;;;;2.67;2.00;;;;;;;-0.19;100.00;96032.81;4990740;28;20227;-82
2021/12/07 03:07:40;;;;;;;3.23;2.17;;;;;;;-0.14;100.00;96044.53;4980063;28;20235;-83
2021/12/07 03:26:44;;;;;;;3.17;1.40;;;;;;;-0.30;100.00;96036.66;4986032;28;20243;-83
2021/12/07 03:29:11;;;;;;;2.20;2.00;;;;;;;-0.27;100.00;96049.56;4977225;28;20207;-83
2021/12/07 03:31:38;;;;;;;1.93;1.50;;;;;;;-0.19;100.00;96062.00;4983625;28;20244;-83
2021/12/07 03:34:06;;;;;;;1.33;1.00;;;;;;;-0.14;100.00;96057.81;4977889;28;20209;-82
2021/12/07 03:36:35;;;;;;;1.43;1.00;;;;;;;-0.11;100.00;96054.81;4987491;28;20197;-82
2021/12/07 03:39:04;;;;;;;1.50;1.27;;;;;;;-0.08;100.00;96050.97;4984364;28;20205;-83
2021/12/07 03:41:31;;;;;;;2.00;1.40;;;;;;;-0.16;100.00;96049.19;4996849;28;20208;-82
2021/12/07 03:44:02;;;;;;;1.80;1.50;;;;;;;-0.12;100.00;96053.16;4976321;28;20263;-83
2021/12/07 03:46:30;;;;;;;2.57;1.73;;;;;;;-0.14;100.00;96041.06;4979901;28;20212;-83
2021/12/07 03:48:57;;;;;;;3.00;1.80;;;;;;;-0.09;100.00;96055.50;4985098;28;20212;-82
2021/12/07 03:51:25;;;;;;;1.93;1.50;;;;;;;-0.09;100.00;96049.34;4991746;28;20232;-83
2021/12/07 03:53:55;;;;;;;2.07;1.60;;;;;;;-0.12;100.00;96039.06;4985387;28;20239;-83
2021/12/07 03:56:22;;;;;;;1.80;1.50;;;;;;;-0.11;100.00;96033.59;4997675;28;20335;-83
2021/12/07 03:58:49;;;;;;;1.87;1.47;;;;;;;-0.11;100.00;96025.63;4990898;28;20199;-82
2021/12/07 04:01:23;;;;;;;2.13;1.47;;;;;;;-0.10;100.00;96064.44;4984643;28;20216;-83
2021/12/07 04:03:52;;;;;;;1.90;1.57;;;;;;;-0.10;100.00;96056.50;4985980;28;20214;-83
2021/12/07 04:06:21;;;;;;;1.60;1.30;;;;;;;-0.09;100.00;96052.84;4982474;28;20197;-82
2021/12/07 04:08:50;;;;;;;1.97;1.40;;;;;;;-0.07;100.00;96040.19;4988234;28;20204;-82
2021/12/07 04:11:18;;;;;;;2.00;1.53;;;;;;;-0.07;100.00;96048.16;4985030;28;20223;-82
2021/12/07 04:13:45;;;;;;;1.73;1.37;;;;;;;-0.10;100.00;96037.91;4983247;28;20204;-82
2021/12/07 04:16:20;;;;;;;2.20;1.37;;;;;;;-0.09;100.00;96044.03;4989852;28;20300;-83
2021/12/07 04:18:50;;;;;;;2.50;1.70;;;;;;;-0.06;100.00;96039.19;4985361;28;20264;-82
2021/12/07 04:21:18;;;;;;;2.30;1.53;;;;;;;-0.08;100.00;96035.88;4982651;28;20262;-82
2021/12/07 04:23:45;;;;;;;1.90;1.60;;;;;;;-0.11;100.00;96046.03;4998386;28;20282;-82
2021/12/07 04:26:14;;;;;;;1.43;1.30;;;;;;;-0.13;100.00;96048.84;4987198;28;20208;-83
2021/12/07 04:28:42;;;;;;;3.00;1.30;;;;;;;-0.11;100.00;96040.72;5000903;28;20208;-81
2021/12/07 04:31:10;;;;;;;1.40;1.13;;;;;;;-0.09;100.00;96038.75;4997466;28;20233;-83
2021/12/07 04:33:40;;;;;;;1.37;1.20;;;;;;;-0.14;100.00;96041.06;4978679;28;20211;-81
2021/12/07 04:36:08;;;;;;;3.07;1.97;;;;;;;-0.11;100.00;96041.56;4995032;28;20212;-83
2021/12/07 04:38:36;;;;;;;3.47;1.70;;;;;;;-0.19;100.00;96033.63;4987633;28;20223;-82
2021/12/07 04:41:04;;;;;;;1.20;1.10;;;;;;;-0.18;100.00;96035.28;4990520;28;20227;-83
2021/12/07 04:43:31;;;;;;;1.40;1.27;;;;;;;-0.19;100.00;96041.59;4983804;28;20219;-83
2021/12/07 04:46:07;;;;;;;6.10;2.20;;;;;;;-0.21;100.00;96054.19;4980503;28;20311;-83
2021/12/07 04:49:08;;;;;;;1.30;1.13;;;;;;;-0.12;100.00;96060.31;5003441;28;20211;-82
2021/12/07 04:59:50;;;;;;;77.87;26.10;;;;;;;-0.14;100.00;96056.97;4981966;28;20212;-82
2021/12/07 05:02:18;;;;;;;64.87;24.10;;;;;;;-0.12;100.00;96055.81;4980833;28;20200;-82
2021/12/07 05:04:45;;;;;;;56.67;22.63;;;;;;;-0.10;100.00;96053.84;4977402;28;20213;-82
2021/12/07 05:07:23;;;;;;;31.63;12.60;;;;;;;-0.05;100.00;96062.09;4983128;28;20197;-82
2021/12/07 05:12:53;;;;;;;45.50;17.63;;;;;;;-0.10;100.00;96063.63;4971030;28;20224;-82
2021/12/07 05:15:27;;;;;;;9.77;5.17;;;;;;;-0.10;100.00;96069.75;4978087;28;20288;-82
2021/12/07 05:18:04;;;;;;;6.63;4.03;;;;;;;-0.09;100.00;96076.72;4978277;28;20207;-83
2021/12/07 05:34:31;;;;;;;3.83;2.60;;;;;;;-0.07;100.00;96074.69;4993554;28;20262;-82
2021/12/07 05:34:46;;;;;;;4.00;2.70;;;;;;;0.00;100.00;96070.34;4988900;28;20216;-82
2021/12/07 05:40:05;;;;;;;4.93;2.83;;;;;;;-0.06;100.00;96057.78;4987134;28;20309;-82
2021/12/07 05:42:32;;;;;;;24.17;8.37;;;;;;;-0.07;100.00;96057.94;4992114;28;20200;-83
2021/12/07 05:44:59;;;;;;;2.60;2.33;;;;;;;0.04;100.00;96046.97;4983435;28;20238;-83
2021/12/07 05:47:26;;;;;;;7.73;5.83;;;;;;;0.03;100.00;96044.47;4974770;28;20259;-81
2021/12/07 05:49:54;;;;;;;16.83;8.40;;;;;;;0.03;100.00;96040.00;4988842;28;20277;-82
2021/12/07 05:52:21;;;;;;;12.73;8.03;;;;;;;0.01;100.00;96044.66;4977391;28;20231;-82
2021/12/07 05:54:48;;;;;;;6.90;5.40;;;;;;;-0.01;100.00;96039.53;4982990;28;20300;-82
2021/12/07 05:57:17;;;;;;;5.17;3.40;;;;;;;-0.01;100.00;96036.06;4982670;28;20330;-82
2021/12/07 05:59:44;;;;;;;10.83;3.43;;;;;;;-0.02;100.00;96037.88;4985520;28;20198;-82
2021/12/07 06:02:11;;;;;;;5.40;3.27;;;;;;;-0.06;100.00;96039.19;4981891;28;20295;-83
2021/12/07 06:04:38;;;;;;;12.10;4.90;;;;;;;0.00;100.00;96030.53;4987295;28;20204;-82
2021/12/07 06:07:05;;;;;;;17.43;7.87;;;;;;;0.03;100.00;96033.84;4982485;28;20189;-82
2021/12/07 06:09:33;;;;;;;18.40;7.67;;;;;;;-0.02;100.00;96019.28;4988125;28;20339;-81
2021/12/07 06:12:00;;;;;;;16.20;6.83;;;;;;;-0.04;100.00;96039.88;4985905;28;20227;-82
2021/12/07 06:14:33;;;;;;;6.73;3.87;;;;;;;-0.07;100.00;96042.84;4987882;28;20204;-82
2021/12/07 06:17:00;;;;;;;7.27;4.27;;;;;;;-0.06;100.00;96036.56;5003312;28;20218;-82
2021/12/07 06:19:28;;;;;;;3.77;2.70;;;;;;;0.02;100.00;96037.50;4983197;28;20208;-82
2021/12/07 06:21:55;;;;;;;6.10;3.37;;;;;;;-0.01;100.00;96025.44;5005179;28;20223;-82
2021/12/07 06:24:22;;;;;;;7.90;4.00;;;;;;;0.00;100.00;96033.19;4984639;28;20220;-82
2021/12/07 06:26:50;;;;;;;7.93;3.83;;;;;;;0.00;100.00;96030.53;4977616;28;20204;-82
2021/12/07 06:29:17;;;;;;;5.10;2.80;;;;;;;0.05;100.00;96021.25;4979226;28;20212;-82
2021/12/07 06:31:45;;;;;;;4.63;3.00;;;;;;;-0.02;100.00;96000.72;4986283;28;20237;-82
2021/12/07 06:34:12;;;;;;;5.73;3.03;;;;;;;0.05;100.00;96015.94;4986878;28;20212;-82
2021/12/07 06:36:40;;;;;;;5.67;2.40;;;;;;;0.05;100.00;96019.44;4985953;28;20209;-81
2021/12/07 06:39:09;;;;;;;7.03;2.13;;;;;;;0.07;100.00;96024.56;4984165;28;20214;-83
2021/12/07 06:41:36;;;;;;;2.87;2.00;;;;;;;0.05;100.00;96023.91;4981046;28;20208;-83
2021/12/07 06:44:04;;;;;;;7.13;2.30;;;;;;;0.10;100.00;96018.88;4987251;28;20209;-82
2021/12/07 06:46:31;;;;;;;4.40;2.37;;;;;;;0.14;100.00;96022.88;4983379;28;20282;-83
2021/12/07 06:49:00;;;;;;;5.83;2.37;;;;;;;0.18;100.00;96035.59;4996733;28;20200;-83
2021/12/07 06:51:28;;;;;;;4.67;2.40;;;;;;;0.20;100.00;96036.25;4985584;28;20251;-83
2021/12/07 06:53:56;;;;;;;4.33;2.60;;;;;;;0.18;100.00;96024.16;4978158;28;20288;-83
2021/12/07 06:56:24;;;;;;;5.30;2.90;;;;;;;0.17;100.00;96023.31;4982582;28;20304;-83
2021/12/07 06:58:51;;;;;;;3.60;2.80;;;;;;;0.19;100.00;96041.75;4988915;28;20220;-82
2021/12/07 07:01:18;;;;;;;6.53;3.80;;;;;;;0.20;100.00;96032.78;4986936;28;20253;-83
2021/12/07 07:03:45;;;;;;;6.23;3.67;;;;;;;0.14;100.00;96030.84;4986864;28;20307;-83
2021/12/07 07:06:13;;;;;;;8.47;3.60;;;;;;;0.13;100.00;96029.19;4992042;28;20233;-82
2021/12/07 07:08:40;;;;;;;5.57;3.77;;;;;;;0.12;100.00;96038.97;5000616;28;20223;-82
2021/12/07 07:11:08;;;;;;;4.53;3.20;;;;;;;0.09;100.00;96023.38;5010456;28;20214;-82
2021/12/07 07:13:35;;;;;;;5.73;3.77;;;;;;;0.11;100.00;96017.91;4989632;28;20204;-82
2021/12/07 07:16:02;;;;;;;5.83;3.87;;;;;;;0.13;100.00;96031.81;4979838;28;20300;-83
2021/12/07 07:18:29;;;;;;;4.87;3.70;;;;;;;0.17;100.00;96033.16;4983768;28;20208;-83
2021/12/07 07:20:57;;;;;;;3.50;2.70;;;;;;;0.13;100.00;96031.81;4993493;28;20300;-83
2021/12/07 07:23:25;;;;;;;4.93;3.00;;;;;;;0.21;100.00;96042.41;4992792;28;20205;-83
2021/12/07 07:25:55;;;;;;;6.30;3.73;;;;;;;0.19;100.00;96042.56;4984993;28;20212;-82
2021/12/07 07:28:23;;;;;;;7.80;3.60;;;;;;;0.20;100.00;96046.06;4981642;28;20211;-82
2021/12/07 07:30:50;;;;;;;14.77;4.00;;;;;;;0.20;100.00;96044.22;4978613;28;20216;-81
2021/12/07 07:33:17;;;;;;;5.53;3.60;;;;;;;0.23;100.00;96049.22;4981828;28;20230;-82
2021/12/07 07:35:45;;;;;;;7.07;3.70;;;;;;;0.26;100.00;96043.53;4982207;28;20218;-82
2021/12/07 07:38:12;;;;;;;4.57;3.60;;;;;;;0.27;100.00;96044.34;4995723;28;20217;-82
2021/12/07 07:40:43;;;;;;;3.83;2.93;;;;;;;0.31;100.00;96058.97;4983131;28;20204;-82
2021/12/07 07:43:10;;;;;;;6.17;3.40;;;;;;;0.33;100.00;96063.09;4987119;28;20215;-83
2021/12/07 07:46:02;;;;;;;5.97;3.03;;;;;;;0.35;100.00;96052.28;4974560;28;20228;-82
2021/12/07 07:48:29;;;;;;;6.23;3.10;;;;;;;0.41;100.00;96050.78;4983660;28;20208;-82
2021/12/07 07:50:57;;;;;;;6.27;3.37;;;;;;;0.39;100.00;96048.28;4985037;28;20209;-83
2021/12/07 07:53:24;;;;;;;4.00;2.73;;;;;;;0.41;100.00;96033.00;4977071;28;20321;-83
2021/12/07 07:55:56;;;;;;;4.40;2.73;;;;;;;0.43;100.00;96028.31;4999683;28;20205;-82
2021/12/07 07:58:23;;;;;;;3.57;2.63;;;;;;;0.47;100.00;96023.50;4983447;28;20234;-83
2021/12/07 08:00:50;;;;;;;4.57;3.40;;;;;;;0.43;100.00;96019.53;4995149;28;20203;-83
2021/12/07 08:03:17;;;;;;;5.23;3.93;;;;;;;0.46;100.00;96022.69;4984708;28;20211;-85
2021/12/07 08:05:48;;;;;;;6.47;4.27;;;;;;;0.41;100.00;96018.91;4987743;28;20216;-88
2021/12/07 08:08:20;;;;;;;4.70;3.40;;;;;;;0.48;100.00;96026.00;4988364;28;20216;-88
2021/12/07 08:10:48;;;;;;;7.57;4.17;;;;;;;0.55;100.00;96028.75;4979992;28;20207;-84
2021/12/07 08:13:19;;;;;;;6.37;4.40;;;;;;;0.55;100.00;96036.72;4977435;28;20290;-84
2021/12/07 08:15:49;;;;;;;9.73;3.87;;;;;;;0.61;100.00;96047.47;4982149;28;20211;-83
2021/12/07 08:18:16;;;;;;;8.97;4.27;;;;;;;0.60;100.00;96061.75;4996865;28;20202;-84
2021/12/07 08:20:45;;;;;;;8.30;4.70;;;;;;;0.56;100.00;96057.81;4989621;28;20224;-85
2021/12/07 08:26:29;;;;;;;7.20;4.30;;;;;;;0.63;100.00;96056.09;5001317;28;20199;-88
2021/12/07 08:29:00;;;;;;;6.93;3.93;;;;;;;0.74;100.00;96071.66;4988231;28;20211;-83
2021/12/07 08:31:29;;;;;;;4.93;4.03;;;;;;;0.71;100.00;96049.91;4999905;28;20200;-84
2021/12/07 08:33:56;;;;;;;7.37;4.80;;;;;;;0.83;100.00;96063.63;4990294;28;20217;-84
2021/12/07 08:36:24;;;;;;;7.67;4.90;;;;;;;0.83;100.00;96063.63;5007037;28;20293;-84
2021/12/07 08:38:51;;;;;;;8.13;4.73;;;;;;;0.85;100.00;96072.25;4989893;28;20278;-85
2021/12/07 08:41:18;;;;;;;11.27;5.37;;;;;;;0.95;100.00;96080.78;5006219;28;20195;-83
2021/12/07 08:43:45;;;;;;;10.20;4.20;;;;;;;0.96;100.00;96064.69;4990743;28;20210;-83
2021/12/07 08:46:16;;;;;;;4.90;3.07;;;;;;;0.99;100.00;96067.00;4992806;28;20231;-83
2021/12/07 08:48:44;;;;;;;6.73;2.70;;;;;;;1.04;100.00;96077.06;4997665;28;20218;-84
2021/12/07 08:51:13;;;;;;;4.27;2.20;;;;;;;1.07;100.00;96074.06;4994904;28;20211;-84
2021/12/07 08:53:47;;;;;;;10.70;3.37;;;;;;;1.15;100.00;96087.31;4988150;28;20287;-84
2021/12/07 09:01:44;;;;;;;7.07;3.60;;;;;;;1.23;100.00;96099.72;4980580;28;20223;-84
2021/12/07 09:04:16;;;;;;;5.93;3.20;;;;;;;1.19;100.00;96104.56;4987493;28;20200;-83
2021/12/07 09:06:44;;;;;;;8.90;3.20;;;;;;;1.16;100.00;96106.75;4986899;28;20213;-84
2021/12/07 09:09:11;;;;;;;3.73;2.70;;;;;;;1.27;100.00;96115.16;4992597;28;20486;-84
2021/12/07 09:11:38;;;;;;;4.90;2.90;;;;;;;1.34;100.00;96118.75;4990941;28;20203;-84
2021/12/07 09:14:05;;;;;;;3.53;2.57;;;;;;;1.35;100.00;96131.03;4988051;28;20230;-84
2021/12/07 09:16:32;;;;;;;5.80;3.30;;;;;;;1.31;100.00;96128.91;4990128;28;20266;-84
2021/12/07 09:19:01;;;;;;;6.43;3.37;;;;;;;1.24;100.00;96110.16;4990317;28;20207;-84
2021/12/07 09:21:28;;;;;;;7.30;3.80;;;;;;;1.36;100.00;96115.91;4986845;28;20231;-84
2021/12/07 09:23:55;;;;;;;11.57;4.63;;;;;;;1.39;100.00;96121.69;5017796;28;20215;-84
2021/12/07 09:26:22;;;;;;;6.27;3.53;;;;;;;1.48;100.00;96125.09;5001393;28;20234;-84
2021/12/07 09:28:49;;;;;;;8.20;3.27;;;;;;;1.56;100.00;96132.19;5007795;28;20266;-84
2021/12/07 09:31:17;;;;;;;8.77;4.50;;;;;;;1.63;100.00;96135.78;5005449;28;20206;-84
2021/12/07 09:33:44;;;;;;;11.60;4.50;;;;;;;1.73;100.00;96136.34;5004618;28;20228;-84
2021/12/07 09:36:14;;;;;;;5.63;3.30;;;;;;;1.75;100.00;96131.69;5005980;28;20210;-84
2021/12/07 09:38:42;;;;;;;6.60;3.80;;;;;;;1.74;100.00;96122.03;5003842;28;20211;-85
2021/12/07 09:41:11;;;;;;;10.27;3.90;;;;;;;1.71;100.00;96123.22;5002576;28;20200;-85
2021/12/07 09:43:38;;;;;;;3.40;2.60;;;;;;;1.76;100.00;96128.00;5018604;28;20209;-84
2021/12/07 09:46:07;;;;;;;5.67;3.60;;;;;;;1.71;100.00;96128.53;5002691;28;20221;-83
2021/12/07 09:48:34;;;;;;;13.47;4.00;;;;;;;1.76;100.00;96128.00;4998291;28;20207;-83
2021/12/07 09:51:02;;;;;;;5.03;3.43;;;;;;;1.85;100.00;96122.44;5003786;28;20230;-84
2021/12/07 09:53:30;;;;;;;5.53;3.73;;;;;;;1.94;100.00;96136.50;5011530;28;20256;-82
2021/12/07 09:55:59;;;;;;;6.33;3.63;;;;;;;2.04;100.00;96133.56;5022527;28;20534;-88
2021/12/07 09:58:28;;;;;;;9.83;4.40;;;;;;;2.10;100.00;96130.16;5007310;28;20321;-84
2021/12/07 10:00:56;;;;;;;7.93;4.07;;;;;;;2.22;100.00;96126.84;5006030;28;20292;-85
2021/12/07 10:03:24;;;;;;;6.93;4.30;;;;;;;2.40;100.00;96122.97;5005672;28;20216;-86
2021/12/07 10:05:53;;;;;;;4.73;3.33;;;;;;;2.49;100.00;96129.88;5008042;28;20209;-86
2021/12/07 10:08:20;;;;;;;9.17;3.97;;;;;;;2.68;100.00;96129.28;5003189;28;20215;-86
2021/12/07 10:10:53;;;;;;;5.73;3.80;;;;;;;2.74;100.00;96123.22;5012258;28;20261;-85
2021/12/07 10:13:21;;;;;;;5.60;4.17;;;;;;;2.80;100.00;96122.47;5009112;28;20312;-82
2021/12/07 10:15:50;;;;;;;7.10;4.70;;;;;;;2.94;100.00;96110.13;5003784;28;20214;-85
2021/12/07 10:18:19;;;;;;;7.90;4.10;;;;;;;3.06;100.00;96115.78;5010321;28;20203;-85
2021/12/07 10:20:49;;;;;;;10.23;4.73;;;;;;;3.19;100.00;96110.56;5007197;28;20210;-84
2021/12/07 10:23:29;;;;;;;10.50;4.80;;;;;;;3.33;100.00;96112.34;4999202;28;20203;-86
2021/12/07 10:26:01;;;;;;;6.80;4.63;;;;;;;3.54;100.00;96109.69;5008278;28;20227;-83
2021/12/07 10:28:32;;;;;;;7.87;4.57;;;;;;;3.67;100.00;96085.75;5007083;28;20345;-83
2021/12/07 10:31:04;;;;;;;7.17;3.30;;;;;;;3.75;100.00;96080.25;4999368;28;20239;-82
2021/12/07 10:33:34;;;;;;;12.23;4.60;;;;;;;3.96;100.00;96081.22;4998134;28;20227;-83
2021/12/07 10:36:13;;;;;;;14.83;4.53;;;;;;;4.52;100.00;96077.41;5014807;28;20204;-82
2021/12/07 10:38:41;;;;;;;8.87;3.77;;;;;;;4.92;100.00;96073.06;5006791;28;20203;-83
2021/12/07 10:41:15;;;;;;;6.63;3.17;;;;;;;5.26;100.00;96072.09;5009141;28;20221;-83
2021/12/07 10:43:48;;;;;;;4.40;2.57;;;;;;;5.50;100.00;96084.06;5010145;28;20222;-84
2021/12/07 10:46:36;;;;;;;5.10;2.60;;;;;;;5.75;100.00;96078.09;5010169;28;20222;-84
2021/12/07 10:49:16;;;;;;;5.50;2.90;;;;;;;6.06;100.00;96076.44;5015297;28;20214;-84
2021/12/07 10:51:57;;;;;;;4.03;2.50;;;;;;;6.28;100.00;96068.16;5016240;28;20205;-84
2021/12/07 10:54:27;;;;;;;7.40;2.93;;;;;;;6.18;100.00;96078.47;5013560;28;20238;-85
2021/12/07 10:56:56;;;;;;;8.40;3.07;;;;;;;6.02;100.00;96064.50;4994467;28;20243;-84
2021/12/07 10:59:23;;;;;;;5.60;2.67;;;;;;;6.14;100.00;96067.34;5005114;28;20212;-85
2021/12/07 11:01:53;;;;;;;8.53;3.70;;;;;;;6.26;100.00;96054.13;5009407;28;20202;-84
2021/12/07 11:04:30;;;;;;;8.13;3.63;;;;;;;6.55;100.00;96039.41;5008372;28;20298;-84
2021/12/07 11:07:09;;;;;;;7.57;3.60;;;;;;;6.91;100.00;96047.66;5002926;28;20199;-84
2021/12/07 11:09:59;;;;;;;9.70;3.90;;;;;;;7.37;100.00;96042.03;5004538;28;20235;-84
2021/12/07 11:12:32;;;;;;;8.77;3.23;;;;;;;7.81;97.92;96040.22;5003211;28;20232;-84
2021/12/07 11:14:59;;;;;;;6.15;3.33;;;;;;;8.03;98.54;96025.31;5024875;28;20443;-84
2021/12/07 11:17:29;;;;;;;7.13;2.93;;;;;;;8.65;95.75;96034.19;5025779;28;20209;-85
2021/12/07 11:19:58;;;;;;;6.47;3.13;;;;;;;8.90;90.10;96037.59;5002355;28;20440;-85
2021/12/07 11:22:30;;;;;;;4.30;2.60;;;;;;;8.67;89.03;96027.56;5008450;28;20207;-84
2021/12/07 11:25:01;;;;;;;3.07;1.90;;;;;;;8.24;88.91;96022.22;5008349;28;20203;-85
2021/12/07 11:30:27;;;;;;;7.33;2.23;;;;;;;8.07;91.80;96007.72;4948554;28;20263;-84
2021/12/07 11:32:57;;;;;;;1.40;1.30;;;;;;;7.93;90.68;96016.94;5000811;28;20226;-84
2021/12/07 11:35:27;;;;;;;3.57;2.10;;;;;;;7.53;92.96;96019.16;5003952;28;20203;-84
2021/12/07 11:37:56;;;;;;;4.73;2.10;;;;;;;7.21;96.51;96015.69;4999840;28;20297;-84
2021/12/07 11:40:26;;;;;;;6.80;2.40;;;;;;;7.11;100.00;96007.28;5005503;28;20203;-85
2021/12/07 11:42:55;;;;;;;3.20;2.37;;;;;;;7.62;98.18;95998.22;5001727;28;20209;-84
2021/12/07 11:45:26;;;;;;;5.27;3.40;;;;;;;8.02;95.08;95996.78;5006651;28;20226;-85
2021/12/07 11:47:55;;;;;;;2.93;1.90;;;;;;;8.05;91.75;95993.66;5025530;28;20199;-85
2021/12/07 11:50:27;;;;;;;1.93;1.57;;;;;;;7.64;90.78;95983.53;5004405;28;20384;-84
2021/12/07 11:52:57;;;;;;;1.83;1.50;;;;;;;7.43;91.69;95990.09;4997012;28;20234;-84
2021/12/07 11:55:26;;;;;;;3.13;1.50;;;;;;;7.52;92.43;95982.59;5002934;28;20215;-84
2021/12/07 11:57:56;;;;;;;6.93;1.67;;;;;;;7.53;92.52;95979.69;5017624;28;20233;-85
2021/12/07 12:00:28;;;;;;;4.80;1.50;;;;;;;7.55;91.86;95974.94;5006646;28;20271;-85
2021/12/07 12:02:56;;;;;;;1.60;1.20;;;;;;;7.56;89.39;95971.22;5008153;28;20310;-85
2021/12/07 12:05:23;;;;;;;1.93;1.10;;;;;;;7.54;91.04;95975.97;4998056;28;20209;-85
2021/12/07 12:07:50;;;;;;;2.97;1.70;;;;;;;7.08;93.56;95984.38;5004980;28;20288;-85
2021/12/07 12:10:20;;;;;;;6.10;2.40;;;;;;;6.45;100.00;95978.97;5021260;28;20278;-84
2021/12/07 12:13:17;;;;;;;4.47;2.00;;;;;;;5.94;100.00;95970.09;5013285;28;20563;-85
2021/12/07 12:15:57;;;;;;;2.40;1.57;;;;;;;5.38;100.00;95959.03;5017786;28;20207;-85
2021/12/07 12:18:45;;;;;;;2.83;1.70;;;;;;;4.98;100.00;95968.91;5004155;28;20261;-85
2021/12/07 12:21:20;;;;;;;3.30;1.30;;;;;;;4.51;100.00;95963.47;5013405;28;20222;-85
2021/12/07 12:23:59;;;;;;;2.40;1.60;;;;;;;4.12;100.00;95950.00;5011678;28;20202;-85
2021/12/07 12:26:27;;;;;;;4.17;1.90;;;;;;;3.87;100.00;95943.53;5019141;28;20221;-85
2021/12/07 12:28:57;;;;;;;2.27;1.63;;;;;;;3.66;100.00;95942.59;5025171;28;20206;-85
2021/12/07 12:31:43;;;;;;;2.33;1.70;;;;;;;3.48;100.00;95933.47;5018510;28;20242;-84
2021/12/07 12:34:16;;;;;;;4.30;1.60;;;;;;;3.43;100.00;95916.19;5009774;28;20253;-84
2021/12/07 12:36:55;;;;;;;3.27;1.60;;;;;;;3.30;100.00;95915.28;5007930;28;20238;-85
2021/12/07 12:39:41;;;;;;;2.20;1.60;;;;;;;3.20;100.00;95912.13;5007902;28;20206;-84
2021/12/07 12:42:08;;;;;;;3.93;1.80;;;;;;;3.14;100.00;95910.25;5007878;28;20202;-84
2021/12/07 12:44:38;;;;;;;2.60;1.47;;;;;;;3.07;100.00;95901.34;5009854;28;20317;-84
2021/12/07 12:47:06;;;;;;;2.13;1.50;;;;;;;3.00;100.00;95888.81;5009571;28;20209;-84
2021/12/07 12:49:39;;;;;;;3.37;2.20;;;;;;;3.00;100.00;95883.47;5006889;28;20233;-84
2021/12/07 12:52:07;;;;;;;12.97;5.60;;;;;;;2.95;100.00;95880.56;5004729;28;20272;-84
2021/12/07 12:54:44;;;;;;;13.37;5.07;;;;;;;2.88;100.00;95878.88;5004931;28;20332;-85
2021/12/07 12:57:14;;;;;;;4.00;2.37;;;;;;;2.77;100.00;95861.56;5018813;28;20240;-84
2021/12/07 12:59:45;;;;;;;2.90;1.87;;;;;;;2.71;100.00;95851.69;5016591;28;20204;-85
2021/12/07 13:02:13;;;;;;;3.00;2.10;;;;;;;2.73;100.00;95854.97;5005531;28;20321;-84
2021/12/07 13:04:41;;;;;;;5.47;3.17;;;;;;;2.74;100.00;95843.28;5009196;28;20203;-84
2021/12/07 13:07:26;;;;;;;5.97;2.30;;;;;;;2.77;100.00;95845.56;5016090;28;20195;-85
2021/12/07 13:09:58;;;;;;;6.10;2.27;;;;;;;2.90;100.00;95845.66;5004103;28;20207;-84